Time,TemperatureF,DewpointF,PressureIn,WindDirection,WindDirectionDegrees,WindSpeedMPH,WindSpeedGustMPH,Humidity,HourlyPrecipIn,Conditions,Clouds,dailyrainin,SoftwareType,DateUTC
2013-01-25 00:00:00,20.4,7.2,30.26,SE,146,0.0,13.0,56,0.00,,,0.00,Wunderground v.1.15,2013-01-25 06:00:00,
2013-01-25 00:10:00,20.2,7.4,30.25,SE,146,1.0,13.0,57,0.00,,,0.00,Wunderground v.1.15,2013-01-25 06:10:00,
2013-01-25 00:20:00,20.1,7.3,30.26,SE,146,3.0,3.0,57,0.00,,,0.00,Wunderground v.1.15,2013-01-25 06:20:00,
2013-01-25 00:25:00,20.1,7.3,30.25,SE,146,2.0,13.0,57,0.00,,,0.00,Wunderground v.1.15,2013-01-25 06:25:00,
2013-01-25 00:30:00,20.0,7.6,30.24,SE,146,3.0,3.0,58,0.00,,,0.00,Wunderground v.1.15,2013-01-25 06:30:00,
2013-01-25 00:35:00,20.0,7.6,30.23,SE,146,3.0,13.0,58,0.00,,,0.00,Wunderground v.1.15,2013-01-25 06:35:00,
2013-01-25 00:40:00,19.9,7.5,30.24,SE,146,2.0,2.0,58,0.00,,,0.00,Wunderground v.1.15,2013-01-25 06:40:00,
2013-01-25 00:45:00,19.8,7.4,30.24,SE,146,1.0,13.0,58,0.00,,,0.00,Wunderground v.1.15,2013-01-25 06:45:00,
2013-01-25 00:55:00,19.7,7.7,30.24,SE,146,0.0,13.0,59,0.00,,,0.00,Wunderground v.1.15,2013-01-25 06:55:00,
2013-01-25 01:04:00,19.7,7.7,30.23,SE,146,2.0,13.0,59,0.00,,,0.00,Wunderground v.1.15,2013-01-25 07:04:00,
2013-01-25 01:10:00,19.8,7.8,30.23,SE,146,2.0,13.0,59,0.00,,,0.00,Wunderground v.1.15,2013-01-25 07:10:00,
2013-01-25 01:15:00,19.9,7.9,30.22,SE,146,2.0,13.0,59,0.00,,,0.00,Wunderground v.1.15,2013-01-25 07:15:00,
2013-01-25 01:20:00,19.9,7.9,30.22,SE,146,2.0,13.0,59,0.00,,,0.00,Wunderground v.1.15,2013-01-25 07:20:00,
2013-01-25 01:30:00,19.9,8.2,30.22,SE,146,2.0,13.0,60,0.00,,,0.00,Wunderground v.1.15,2013-01-25 07:30:00,
2013-01-25 01:35:00,20.0,8.3,30.22,SE,146,2.0,13.0,60,0.00,,,0.00,Wunderground v.1.15,2013-01-25 07:35:00,
2013-01-25 01:40:00,20.0,8.3,30.22,SSE,148,3.0,13.0,60,0.00,,,0.00,Wunderground v.1.15,2013-01-25 07:40:00,
2013-01-25 01:45:00,20.0,8.3,30.22,South,177,3.0,13.0,60,0.00,,,0.00,Wunderground v.1.15,2013-01-25 07:45:00,
2013-01-25 01:55:00,20.4,8.3,30.20,South,184,4.0,13.0,59,0.00,,,0.00,Wunderground v.1.15,2013-01-25 07:55:00,
2013-01-25 02:05:00,20.4,8.3,30.20,South,186,4.0,13.0,59,0.00,,,0.00,Wunderground v.1.15,2013-01-25 08:05:00,
2013-01-25 02:10:00,20.3,8.6,30.21,South,185,4.0,4.0,60,0.00,,,0.00,Wunderground v.1.15,2013-01-25 08:10:00,
2013-01-25 02:15:00,20.2,8.5,30.22,South,187,4.0,13.0,60,0.00,,,0.00,Wunderground v.1.15,2013-01-25 08:15:00,
2013-01-25 02:20:00,20.0,8.3,30.22,South,187,3.0,3.0,60,0.00,,,0.00,Wunderground v.1.15,2013-01-25 08:20:00,
2013-01-25 02:25:00,19.7,8.4,30.22,South,188,2.0,13.0,61,0.00,,,0.00,Wunderground v.1.15,2013-01-25 08:25:00,
2013-01-25 02:35:00,18.9,8.4,30.22,South,188,2.0,13.0,63,0.00,,,0.00,Wunderground v.1.15,2013-01-25 08:35:00,
2013-01-25 02:40:00,18.6,8.1,30.22,South,188,2.0,13.0,63,0.00,,,0.00,Wunderground v.1.15,2013-01-25 08:40:00,
2013-01-25 02:45:00,18.3,8.1,30.22,South,188,3.0,13.0,64,0.00,,,0.00,Wunderground v.1.15,2013-01-25 08:45:00,
2013-01-25 02:54:00,17.9,8.1,30.22,South,188,2.0,13.0,65,0.00,,,0.00,Wunderground v.1.15,2013-01-25 08:54:00,
2013-01-25 03:00:00,17.7,8.3,30.22,South,188,3.0,13.0,66,0.00,,,0.00,Wunderground v.1.15,2013-01-25 09:00:00,
2013-01-25 03:10:00,17.5,8.4,30.21,South,188,3.0,13.0,67,0.00,,,0.00,Wunderground v.1.15,2013-01-25 09:10:00,
2013-01-25 03:15:00,17.4,8.6,30.21,South,188,3.0,13.0,68,0.00,,,0.00,Wunderground v.1.15,2013-01-25 09:15:00,
2013-01-25 03:20:00,17.3,8.5,30.20,South,188,3.0,13.0,68,0.00,,,0.00,Wunderground v.1.15,2013-01-25 09:20:00,
2013-01-25 03:25:00,17.2,8.4,30.20,South,189,3.0,13.0,68,0.00,,,0.00,Wunderground v.1.15,2013-01-25 09:25:00,
2013-01-25 03:30:00,17.2,8.4,30.21,South,190,4.0,13.0,68,0.00,,,0.00,Wunderground v.1.15,2013-01-25 09:30:00,
2013-01-25 03:35:00,17.1,8.3,30.20,SSW,192,4.0,13.0,68,0.00,,,0.00,Wunderground v.1.15,2013-01-25 09:35:00,
2013-01-25 03:45:00,17.1,8.3,30.20,SSW,193,4.0,13.0,68,0.00,,,0.00,Wunderground v.1.15,2013-01-25 09:45:00,
2013-01-25 03:50:00,17.2,8.4,30.19,SSW,192,3.0,13.0,68,0.00,,,0.00,Wunderground v.1.15,2013-01-25 09:50:00,
2013-01-25 03:59:00,17.4,8.6,30.19,SSW,192,3.0,3.0,68,0.00,,,0.00,Wunderground v.1.15,2013-01-25 09:59:00,
2013-01-25 04:05:00,17.4,8.6,30.19,SSW,193,3.0,13.0,68,0.00,,,0.00,Wunderground v.1.15,2013-01-25 10:05:00,
2013-01-25 04:10:00,17.2,8.4,30.19,SSW,193,3.0,3.0,68,0.00,,,0.00,Wunderground v.1.15,2013-01-25 10:10:00,
2013-01-25 04:20:00,17.0,8.6,30.19,SSW,194,3.0,13.0,69,0.00,,,0.00,Wunderground v.1.15,2013-01-25 10:20:00,
2013-01-25 04:25:00,16.9,8.5,30.19,SSW,195,3.0,13.0,69,0.00,,,0.00,Wunderground v.1.15,2013-01-25 10:25:00,
2013-01-25 04:30:00,16.8,8.4,30.18,SSW,192,4.0,13.0,69,0.00,,,0.00,Wunderground v.1.15,2013-01-25 10:30:00,
2013-01-25 04:35:00,17.0,8.9,30.18,SSW,208,5.0,13.0,70,0.00,,,0.00,Wunderground v.1.15,2013-01-25 10:35:00,
2013-01-25 04:40:00,17.2,8.8,30.18,SSW,209,5.0,5.0,69,0.00,,,0.00,Wunderground v.1.15,2013-01-25 10:40:00,
2013-01-25 04:50:00,17.5,9.1,30.19,SSW,211,4.0,13.0,69,0.00,,,0.00,Wunderground v.1.15,2013-01-25 10:50:00,
2013-01-25 04:55:00,17.5,9.1,30.19,SSW,211,4.0,13.0,69,0.00,,,0.00,Wunderground v.1.15,2013-01-25 10:55:00,
2013-01-25 05:04:00,17.3,8.9,30.19,SSW,213,4.0,13.0,69,0.00,,,0.00,Wunderground v.1.15,2013-01-25 11:04:00,
2013-01-25 05:10:00,17.1,8.7,30.19,SSW,213,4.0,13.0,69,0.00,,,0.00,Wunderground v.1.15,2013-01-25 11:10:00,
2013-01-25 05:15:00,17.0,8.9,30.19,SW,215,4.0,13.0,70,0.00,,,0.00,Wunderground v.1.15,2013-01-25 11:15:00,
2013-01-25 05:20:00,17.1,9.0,30.19,SSW,212,3.0,13.0,70,0.00,,,0.00,Wunderground v.1.15,2013-01-25 11:20:00,
2013-01-25 05:25:00,17.4,9.3,30.18,SW,216,3.0,13.0,70,0.00,,,0.00,Wunderground v.1.15,2013-01-25 11:25:00,
2013-01-25 05:30:00,17.5,9.4,30.18,SSW,211,4.0,13.0,70,0.00,,,0.00,Wunderground v.1.15,2013-01-25 11:30:00,
2013-01-25 05:35:00,17.4,9.3,30.19,SSW,198,4.0,13.0,70,0.00,,,0.00,Wunderground v.1.15,2013-01-25 11:35:00,
2013-01-25 05:40:00,17.2,9.1,30.19,SSW,207,4.0,4.0,70,0.00,,,0.00,Wunderground v.1.15,2013-01-25 11:40:00,
2013-01-25 05:45:00,17.2,9.1,30.20,SSW,207,3.0,13.0,70,0.00,,,0.00,Wunderground v.1.15,2013-01-25 11:45:00,
2013-01-25 05:54:00,17.7,9.9,30.20,SSW,211,3.0,13.0,71,0.00,,,0.00,Wunderground v.1.15,2013-01-25 11:54:00,
2013-01-25 05:59:00,17.9,10.1,30.20,SSW,208,4.0,13.0,71,0.00,,,0.00,Wunderground v.1.15,2013-01-25 11:59:00,
2013-01-25 06:05:00,17.8,10.0,30.20,SSW,210,4.0,13.0,71,0.00,,,0.00,Wunderground v.1.15,2013-01-25 12:05:00,
2013-01-25 06:10:00,17.7,9.9,30.19,SSW,208,3.0,13.0,71,0.00,,,0.00,Wunderground v.1.15,2013-01-25 12:10:00,
2013-01-25 06:15:00,17.6,10.1,30.19,SSW,208,2.0,13.0,72,0.00,,,0.00,Wunderground v.1.15,2013-01-25 12:15:00,
2013-01-25 06:20:00,17.7,10.8,30.19,SSW,209,2.0,2.0,74,0.00,,,0.00,Wunderground v.1.15,2013-01-25 12:20:00,
2013-01-25 06:25:00,18.0,11.1,30.19,SSW,208,2.0,13.0,74,0.00,,,0.00,Wunderground v.1.15,2013-01-25 12:25:00,
2013-01-25 06:35:00,18.3,11.4,30.20,SW,214,2.0,13.0,74,0.00,,,0.00,Wunderground v.1.15,2013-01-25 12:35:00,
2013-01-25 06:40:00,18.6,12.0,30.20,SW,225,2.0,13.0,75,0.00,,,0.00,Wunderground v.1.15,2013-01-25 12:40:00,
2013-01-25 06:45:00,18.8,12.2,30.20,SW,232,2.0,13.0,75,0.00,,,0.00,Wunderground v.1.15,2013-01-25 12:45:00,
2013-01-25 06:50:00,19.0,12.1,30.20,SSW,211,3.0,3.0,74,0.00,,,0.00,Wunderground v.1.15,2013-01-25 12:50:00,
2013-01-25 06:59:00,19.0,12.1,30.20,SSW,210,3.0,13.0,74,0.00,,,0.00,Wunderground v.1.15,2013-01-25 12:59:00,
2013-01-25 07:04:00,19.0,12.4,30.21,SW,219,3.0,13.0,75,0.00,,,0.00,Wunderground v.1.15,2013-01-25 13:04:00,
2013-01-25 07:10:00,18.9,12.3,30.21,SW,219,3.0,3.0,75,0.00,,,0.00,Wunderground v.1.15,2013-01-25 13:10:00,
2013-01-25 07:15:00,18.9,12.6,30.21,SW,223,3.0,13.0,76,0.00,,,0.00,Wunderground v.1.15,2013-01-25 13:15:00,
2013-01-25 07:20:00,18.8,12.5,30.21,SSW,212,3.0,13.0,76,0.00,,,0.00,Wunderground v.1.15,2013-01-25 13:20:00,
2013-01-25 07:25:00,18.6,12.3,30.21,SSW,211,3.0,13.0,76,0.00,,,0.00,Wunderground v.1.15,2013-01-25 13:25:00,
2013-01-25 07:30:00,18.6,12.3,30.21,SW,214,2.0,13.0,76,0.00,,,0.00,Wunderground v.1.15,2013-01-25 13:30:00,
2013-01-25 07:35:00,18.4,12.4,30.21,SSW,213,2.0,13.0,77,0.00,,,0.00,Wunderground v.1.15,2013-01-25 13:35:00,
2013-01-25 07:40:00,18.4,12.4,30.21,SW,215,2.0,2.0,77,0.00,,,0.00,Wunderground v.1.15,2013-01-25 13:40:00,
2013-01-25 07:45:00,18.4,12.4,30.22,SW,222,2.0,13.0,77,0.00,,,0.00,Wunderground v.1.15,2013-01-25 13:45:00,
2013-01-25 07:50:00,18.4,12.7,30.22,SW,220,2.0,2.0,78,0.00,,,0.00,Wunderground v.1.15,2013-01-25 13:50:00,
2013-01-25 07:55:00,18.4,12.7,30.21,SW,218,2.0,5.0,78,0.00,,,0.00,Wunderground v.1.15,2013-01-25 13:55:00,
2013-01-25 08:04:00,18.3,12.6,30.22,SSW,201,3.0,3.0,78,0.00,,,0.00,Wunderground v.1.15,2013-01-25 14:04:00,
2013-01-25 08:15:00,18.4,13.0,30.22,SSW,202,3.0,13.0,79,0.00,,,0.00,Wunderground v.1.15,2013-01-25 14:15:00,
2013-01-25 08:20:00,18.6,13.2,30.22,SSW,202,3.0,3.0,79,0.00,,,0.00,Wunderground v.1.15,2013-01-25 14:20:00,
2013-01-25 08:25:00,18.9,13.5,30.23,SSW,202,3.0,13.0,79,0.00,,,0.00,Wunderground v.1.15,2013-01-25 14:25:00,
2013-01-25 08:30:00,19.2,14.0,30.23,SSW,202,3.0,13.0,80,0.00,,,0.00,Wunderground v.1.15,2013-01-25 14:30:00,
2013-01-25 08:35:00,19.6,14.1,30.23,SSW,202,3.0,13.0,79,0.00,,,0.00,Wunderground v.1.15,2013-01-25 14:35:00,
2013-01-25 08:40:00,19.9,14.4,30.23,SSW,202,3.0,3.0,79,0.00,,,0.00,Wunderground v.1.15,2013-01-25 14:40:00,
2013-01-25 08:45:00,20.2,14.7,30.23,SSW,200,3.0,13.0,79,0.00,,,0.00,Wunderground v.1.15,2013-01-25 14:45:00,
2013-01-25 08:50:00,20.6,14.8,30.24,SSW,200,3.0,13.0,78,0.00,,,0.00,Wunderground v.1.15,2013-01-25 14:50:00,
2013-01-25 08:55:00,21.0,15.2,30.24,SSW,200,3.0,13.0,78,0.00,,,0.00,Wunderground v.1.15,2013-01-25 14:55:00,
2013-01-25 09:00:00,21.5,15.7,30.23,SSW,199,3.0,13.0,78,0.00,,,0.00,Wunderground v.1.15,2013-01-25 15:00:00,
2013-01-25 09:09:00,22.5,16.7,30.24,SSW,199,2.0,13.0,78,0.00,,,0.00,Wunderground v.1.15,2013-01-25 15:09:00,
2013-01-25 09:15:00,23.3,17.5,30.24,SSW,199,2.0,13.0,78,0.00,,,0.00,Wunderground v.1.15,2013-01-25 15:15:00,
2013-01-25 09:20:00,23.9,17.7,30.24,SSW,199,2.0,13.0,77,0.00,,,0.00,Wunderground v.1.15,2013-01-25 15:20:00,
2013-01-25 09:25:00,24.5,18.0,30.24,SSW,199,2.0,13.0,76,0.00,,,0.00,Wunderground v.1.15,2013-01-25 15:25:00,
2013-01-25 09:30:00,25.1,18.3,30.24,SSW,199,2.0,2.0,75,0.00,,,0.00,Wunderground v.1.15,2013-01-25 15:30:00,
2013-01-25 09:35:00,25.8,19.3,30.24,SSW,199,2.0,13.0,76,0.00,,,0.00,Wunderground v.1.15,2013-01-25 15:35:00,
2013-01-25 09:40:00,26.8,19.9,30.24,SSW,199,1.0,1.0,75,0.00,,,0.00,Wunderground v.1.15,2013-01-25 15:40:00,
2013-01-25 09:49:00,28.4,20.5,30.24,SSW,200,1.0,1.0,72,0.00,,,0.00,Wunderground v.1.15,2013-01-25 15:49:00,
2013-01-25 09:59:00,30.2,21.6,30.24,SSW,201,0.0,13.0,70,0.00,,,0.00,Wunderground v.1.15,2013-01-25 15:59:00,
2013-01-25 10:05:00,30.8,21.5,30.24,SSW,202,0.0,13.0,68,0.00,,,0.00,Wunderground v.1.15,2013-01-25 16:05:00,
2013-01-25 10:10:00,31.3,22.0,30.24,SSW,202,1.0,13.0,68,0.00,,,0.00,Wunderground v.1.15,2013-01-25 16:10:00,
2013-01-25 10:15:00,32.1,23.1,30.24,SSW,202,1.0,13.0,69,0.00,,,0.00,Wunderground v.1.15,2013-01-25 16:15:00,
2013-01-25 10:20:00,33.0,23.6,30.25,SSW,202,0.0,13.0,68,0.00,,,0.00,Wunderground v.1.15,2013-01-25 16:20:00,
2013-01-25 10:25:00,34.0,23.8,30.25,SSW,203,1.0,13.0,66,0.00,,,0.00,Wunderground v.1.15,2013-01-25 16:25:00,
2013-01-25 10:30:00,34.6,23.7,30.25,SSW,203,1.0,13.0,64,0.00,,,0.00,Wunderground v.1.15,2013-01-25 16:30:00,
2013-01-25 10:35:00,34.7,23.8,30.26,SSW,202,2.0,13.0,64,0.00,,,0.00,Wunderground v.1.15,2013-01-25 16:35:00,
2013-01-25 10:40:00,35.1,23.8,30.26,South,191,2.0,13.0,63,0.00,,,0.00,Wunderground v.1.15,2013-01-25 16:40:00,
2013-01-25 10:45:00,35.4,24.0,30.26,SSW,194,2.0,13.0,63,0.00,,,0.00,Wunderground v.1.15,2013-01-25 16:45:00,
2013-01-25 10:55:00,36.9,25.5,30.26,SSW,204,3.0,13.0,63,0.00,,,0.00,Wunderground v.1.15,2013-01-25 16:55:00,
2013-01-25 11:05:00,38.6,26.3,30.26,WNW,287,2.0,4.0,61,0.00,,,0.00,Wunderground v.1.15,2013-01-25 17:05:00,
2013-01-25 11:10:00,39.0,26.3,30.27,NW,310,3.0,3.0,60,0.00,,,0.00,Wunderground v.1.15,2013-01-25 17:10:00,
2013-01-25 11:15:00,39.4,26.7,30.27,WNW,299,3.0,13.0,60,0.00,,,0.00,Wunderground v.1.15,2013-01-25 17:15:00,
2013-01-25 11:20:00,40.1,26.9,30.26,WNW,303,2.0,2.0,59,0.00,,,0.00,Wunderground v.1.15,2013-01-25 17:20:00,
2013-01-25 11:25:00,40.8,27.2,30.26,WNW,303,1.0,13.0,58,0.00,,,0.00,Wunderground v.1.15,2013-01-25 17:25:00,
2013-01-25 11:30:00,41.5,27.4,30.26,NW,304,1.0,13.0,57,0.00,,,0.00,Wunderground v.1.15,2013-01-25 17:30:00,
2013-01-25 11:40:00,43.4,27.4,30.26,SSW,213,1.0,13.0,53,0.00,,,0.00,Wunderground v.1.15,2013-01-25 17:40:00,
2013-01-25 11:45:00,43.5,27.5,30.25,SSW,212,2.0,13.0,53,0.00,,,0.00,Wunderground v.1.15,2013-01-25 17:45:00,
2013-01-25 11:54:00,44.8,28.2,30.25,NW,313,2.0,13.0,52,0.00,,,0.00,Wunderground v.1.15,2013-01-25 17:54:00,
2013-01-25 12:00:00,45.2,28.1,30.25,NNW,333,3.0,3.0,51,0.00,,,0.00,Wunderground v.1.15,2013-01-25 18:00:00,
2013-01-25 12:05:00,45.4,28.3,30.25,NW,321,4.0,8.0,51,0.00,,,0.00,Wunderground v.1.15,2013-01-25 18:05:00,
2013-01-25 12:15:00,46.3,27.7,30.24,North,355,7.0,13.0,48,0.00,,,0.00,Wunderground v.1.15,2013-01-25 18:15:00,
2013-01-25 12:20:00,46.6,26.9,30.23,NNW,329,8.0,8.0,46,0.00,,,0.00,Wunderground v.1.15,2013-01-25 18:20:00,
2013-01-25 12:25:00,46.6,26.9,30.23,NNW,330,9.0,9.0,46,0.00,,,0.00,Wunderground v.1.15,2013-01-25 18:25:00,
2013-01-25 12:30:00,46.7,27.5,30.23,NW,325,8.0,13.0,47,0.00,,,0.00,Wunderground v.1.15,2013-01-25 18:30:00,
2013-01-25 12:35:00,47.2,27.5,30.22,NNW,329,8.0,13.0,46,0.00,,,0.00,Wunderground v.1.15,2013-01-25 18:35:00,
2013-01-25 12:45:00,47.8,27.5,30.21,NW,324,7.0,13.0,45,0.00,,,0.00,Wunderground v.1.15,2013-01-25 18:45:00,
2013-01-25 12:50:00,47.9,27.0,30.21,NNW,329,8.0,8.0,44,0.00,,,0.00,Wunderground v.1.15,2013-01-25 18:50:00,
2013-01-25 12:59:00,48.2,27.3,30.20,NNW,328,8.0,13.0,44,0.00,,,0.00,Wunderground v.1.15,2013-01-25 18:59:00,
2013-01-25 13:05:00,48.8,27.3,30.20,NW,319,7.0,13.0,43,0.00,,,0.00,Wunderground v.1.15,2013-01-25 19:05:00,
2013-01-25 13:10:00,49.2,26.5,30.20,NW,311,6.0,13.0,41,0.00,,,0.00,Wunderground v.1.15,2013-01-25 19:10:00,
2013-01-25 13:20:00,49.6,26.2,30.20,NW,319,7.0,13.0,40,0.00,,,0.00,Wunderground v.1.15,2013-01-25 19:20:00,
2013-01-25 13:25:00,49.8,27.0,30.20,NW,323,6.0,13.0,41,0.00,,,0.00,Wunderground v.1.15,2013-01-25 19:25:00,
2013-01-25 13:30:00,50.1,25.5,30.20,NW,325,7.0,13.0,38,0.00,,,0.00,Wunderground v.1.15,2013-01-25 19:30:00,
2013-01-25 13:35:00,50.3,26.3,30.20,NW,325,8.0,13.0,39,0.00,,,0.00,Wunderground v.1.15,2013-01-25 19:35:00,
2013-01-25 13:40:00,50.2,26.2,30.19,North,355,8.0,13.0,39,0.00,,,0.00,Wunderground v.1.15,2013-01-25 19:40:00,
2013-01-25 13:45:00,50.2,25.5,30.19,NNW,328,9.0,13.0,38,0.00,,,0.00,Wunderground v.1.15,2013-01-25 19:45:00,
2013-01-25 13:50:00,50.1,24.8,30.18,North,351,9.0,13.0,37,0.00,,,0.00,Wunderground v.1.15,2013-01-25 19:50:00,
2013-01-25 14:00:00,50.4,25.7,30.19,North,350,8.0,13.0,38,0.00,,,0.00,Wunderground v.1.15,2013-01-25 20:00:00,
2013-01-25 14:05:00,50.5,25.2,30.18,NNW,347,8.0,13.0,37,0.00,,,0.00,Wunderground v.1.15,2013-01-25 20:05:00,
2013-01-25 14:10:00,50.4,25.1,30.18,North,349,8.0,13.0,37,0.00,,,0.00,Wunderground v.1.15,2013-01-25 20:10:00,
2013-01-25 14:15:00,50.3,24.3,30.18,NNW,341,8.0,13.0,36,0.00,,,0.00,Wunderground v.1.15,2013-01-25 20:15:00,
2013-01-25 14:20:00,50.5,25.2,30.18,NNW,329,7.0,13.0,37,0.00,,,0.00,Wunderground v.1.15,2013-01-25 20:20:00,
2013-01-25 14:30:00,50.6,25.3,30.18,NW,319,8.0,8.0,37,0.00,,,0.00,Wunderground v.1.15,2013-01-25 20:30:00,
2013-01-25 14:35:00,50.6,24.6,30.17,NNW,328,8.0,9.0,36,0.00,,,0.00,Wunderground v.1.15,2013-01-25 20:35:00,
2013-01-25 14:40:00,50.5,25.2,30.18,NW,326,7.0,7.0,37,0.00,,,0.00,Wunderground v.1.15,2013-01-25 20:40:00,
2013-01-25 14:49:00,50.8,25.4,30.18,NW,320,6.0,6.0,37,0.00,,,0.00,Wunderground v.1.15,2013-01-25 20:49:00,
2013-01-25 14:55:00,50.8,26.1,30.18,NNW,334,4.0,7.0,38,0.00,,,0.00,Wunderground v.1.15,2013-01-25 20:55:00,
2013-01-25 15:05:00,50.8,25.4,30.18,NNW,345,6.0,13.0,37,0.00,,,0.00,Wunderground v.1.15,2013-01-25 21:05:00,
2013-01-25 15:10:00,50.7,25.3,30.18,NNW,333,6.0,6.0,37,0.00,,,0.00,Wunderground v.1.15,2013-01-25 21:10:00,
2013-01-25 15:15:00,50.8,25.4,30.19,NNW,341,4.0,13.0,37,0.00,,,0.00,Wunderground v.1.15,2013-01-25 21:15:00,
2013-01-25 15:20:00,50.7,25.3,30.19,NNW,346,4.0,4.0,37,0.00,,,0.00,Wunderground v.1.15,2013-01-25 21:20:00,
2013-01-25 15:25:00,50.9,26.2,30.18,West,266,4.0,13.0,38,0.00,,,0.00,Wunderground v.1.15,2013-01-25 21:25:00,
2013-01-25 15:35:00,51.8,25.0,30.19,WNW,303,2.0,13.0,35,0.00,,,0.00,Wunderground v.1.15,2013-01-25 21:35:00,
2013-01-25 15:40:00,51.9,25.8,30.18,WNW,290,2.0,2.0,36,0.00,,,0.00,Wunderground v.1.15,2013-01-25 21:40:00,
2013-01-25 15:45:00,51.9,25.1,30.19,NW,313,2.0,4.0,35,0.00,,,0.00,Wunderground v.1.15,2013-01-25 21:45:00,
2013-01-25 15:54:00,51.3,25.2,30.19,NW,309,4.0,6.0,36,0.00,,,0.00,Wunderground v.1.15,2013-01-25 21:54:00,
2013-01-25 16:00:00,51.0,25.0,30.19,NW,320,5.0,13.0,36,0.00,,,0.00,Wunderground v.1.15,2013-01-25 22:00:00,
2013-01-25 16:10:00,50.9,25.5,30.19,NW,320,1.0,1.0,37,0.00,,,0.00,Wunderground v.1.15,2013-01-25 22:10:00,
2013-01-25 16:15:00,50.8,25.4,30.19,NW,315,2.0,2.0,37,0.00,,,0.00,Wunderground v.1.15,2013-01-25 22:15:00,
2013-01-25 16:20:00,50.6,25.3,30.19,NW,316,2.0,13.0,37,0.00,,,0.00,Wunderground v.1.15,2013-01-25 22:20:00,
2013-01-25 16:25:00,50.4,25.1,30.19,NW,316,3.0,13.0,37,0.00,,,0.00,Wunderground v.1.15,2013-01-25 22:25:00,
2013-01-25 16:30:00,50.1,25.5,30.19,NW,316,4.0,4.0,38,0.00,,,0.00,Wunderground v.1.15,2013-01-25 22:30:00,
2013-01-25 16:35:00,49.8,25.2,30.19,NW,316,3.0,13.0,38,0.00,,,0.00,Wunderground v.1.15,2013-01-25 22:35:00,
2013-01-25 16:45:00,49.4,25.4,30.19,NW,316,1.0,13.0,39,0.00,,,0.00,Wunderground v.1.15,2013-01-25 22:45:00,
2013-01-25 16:50:00,49.1,24.6,30.19,NW,316,2.0,2.0,38,0.00,,,0.00,Wunderground v.1.15,2013-01-25 22:50:00,
2013-01-25 16:59:00,48.7,24.8,30.19,NW,316,2.0,2.0,39,0.00,,,0.00,Wunderground v.1.15,2013-01-25 22:59:00,
2013-01-25 17:05:00,48.5,24.6,30.19,NW,316,2.0,13.0,39,0.00,,,0.00,Wunderground v.1.15,2013-01-25 23:05:00,
2013-01-25 17:10:00,48.1,24.3,30.19,NW,316,2.0,2.0,39,0.00,,,0.00,Wunderground v.1.15,2013-01-25 23:10:00,
2013-01-25 17:20:00,46.9,24.4,30.19,NW,316,0.0,13.0,41,0.00,,,0.00,Wunderground v.1.15,2013-01-25 23:20:00,
2013-01-25 17:25:00,46.5,24.6,30.19,NW,316,0.0,13.0,42,0.00,,,0.00,Wunderground v.1.15,2013-01-25 23:25:00,
2013-01-25 17:30:00,46.3,25.0,30.19,NW,316,0.0,13.0,43,0.00,,,0.00,Wunderground v.1.15,2013-01-25 23:30:00,
2013-01-25 17:35:00,45.5,24.8,30.19,NW,316,0.0,13.0,44,0.00,,,0.00,Wunderground v.1.15,2013-01-25 23:35:00,
2013-01-25 17:40:00,45.0,24.9,30.19,NW,316,0.0,13.0,45,0.00,,,0.00,Wunderground v.1.15,2013-01-25 23:40:00,
2013-01-25 17:50:00,44.4,24.4,30.20,NW,316,1.0,1.0,45,0.00,,,0.00,Wunderground v.1.15,2013-01-25 23:50:00,
2013-01-25 17:55:00,44.1,24.6,30.20,NW,316,1.0,13.0,46,0.00,,,0.00,Wunderground v.1.15,2013-01-25 23:55:00,
2013-01-25 18:00:00,43.8,25.4,30.20,NW,316,1.0,13.0,48,0.00,,,0.00,Wunderground v.1.15,2013-01-26 00:00:00,
2013-01-25 18:10:00,43.8,25.9,30.20,NW,316,0.0,13.0,49,0.00,,,0.00,Wunderground v.1.15,2013-01-26 00:10:00,
2013-01-25 18:15:00,43.7,25.8,30.21,NW,316,0.0,13.0,49,0.00,,,0.00,Wunderground v.1.15,2013-01-26 00:15:00,
2013-01-25 18:25:00,43.2,25.8,30.20,NW,316,1.0,13.0,50,0.00,,,0.00,Wunderground v.1.15,2013-01-26 00:25:00,
2013-01-25 18:30:00,43.3,25.9,30.21,NW,316,0.0,13.0,50,0.00,,,0.00,Wunderground v.1.15,2013-01-26 00:30:00,
2013-01-25 18:35:00,42.9,25.5,30.20,NW,316,1.0,13.0,50,0.00,,,0.00,Wunderground v.1.15,2013-01-26 00:35:00,
2013-01-25 18:40:00,42.7,25.8,30.21,NW,316,1.0,1.0,51,0.00,,,0.00,Wunderground v.1.15,2013-01-26 00:40:00,
2013-01-25 18:45:00,42.3,25.9,30.21,NW,316,0.0,13.0,52,0.00,,,0.00,Wunderground v.1.15,2013-01-26 00:45:00,
2013-01-25 18:50:00,42.1,25.7,30.21,NW,316,0.0,13.0,52,0.00,,,0.00,Wunderground v.1.15,2013-01-26 00:50:00,
2013-01-25 19:00:00,41.6,25.3,30.22,NW,316,0.0,13.0,52,0.00,,,0.00,Wunderground v.1.15,2013-01-26 01:00:00,
2013-01-25 19:05:00,41.3,25.4,30.21,NW,316,0.0,13.0,53,0.00,,,0.00,Wunderground v.1.15,2013-01-26 01:05:00,
2013-01-25 19:14:00,40.5,25.6,30.22,NW,316,2.0,13.0,55,0.00,,,0.00,Wunderground v.1.15,2013-01-26 01:14:00,
2013-01-25 19:20:00,40.1,25.2,30.22,NW,316,2.0,2.0,55,0.00,,,0.00,Wunderground v.1.15,2013-01-26 01:20:00,
2013-01-25 19:25:00,40.0,26.0,30.22,WNW,286,2.0,4.0,57,0.00,,,0.00,Wunderground v.1.15,2013-01-26 01:25:00,
2013-01-25 19:35:00,40.1,25.6,30.22,WSW,255,2.0,3.0,56,0.00,,,0.00,Wunderground v.1.15,2013-01-26 01:35:00,
2013-01-25 19:40:00,39.7,25.7,30.22,West,271,2.0,13.0,57,0.00,,,0.00,Wunderground v.1.15,2013-01-26 01:40:00,
2013-01-25 19:45:00,39.2,25.6,30.22,West,275,3.0,13.0,58,0.00,,,0.00,Wunderground v.1.15,2013-01-26 01:45:00,
2013-01-25 19:50:00,38.9,26.2,30.22,West,269,3.0,3.0,60,0.00,,,0.00,Wunderground v.1.15,2013-01-26 01:50:00,
2013-01-25 19:55:00,39.0,26.3,30.22,West,270,2.0,13.0,60,0.00,,,0.00,Wunderground v.1.15,2013-01-26 01:55:00,
2013-01-25 20:05:00,38.7,26.4,30.23,West,265,2.0,13.0,61,0.00,,,0.00,Wunderground v.1.15,2013-01-26 02:05:00,
2013-01-25 20:14:00,38.6,26.7,30.23,SSW,213,2.0,13.0,62,0.00,,,0.00,Wunderground v.1.15,2013-01-26 02:14:00,
2013-01-25 20:20:00,38.4,26.5,30.23,SW,223,2.0,13.0,62,0.00,,,0.00,Wunderground v.1.15,2013-01-26 02:20:00,
2013-01-25 20:25:00,38.0,26.1,30.23,WSW,248,3.0,13.0,62,0.00,,,0.00,Wunderground v.1.15,2013-01-26 02:25:00,
2013-01-25 20:30:00,37.7,26.2,30.23,WSW,252,3.0,3.0,63,0.00,,,0.00,Wunderground v.1.15,2013-01-26 02:30:00,
2013-01-25 20:40:00,36.8,25.8,30.23,WNW,288,4.0,13.0,64,0.00,,,0.00,Wunderground v.1.15,2013-01-26 02:40:00,
2013-01-25 20:45:00,35.8,25.2,30.22,WNW,298,4.0,13.0,65,0.00,,,0.00,Wunderground v.1.15,2013-01-26 02:45:00,
2013-01-25 20:50:00,35.1,25.2,30.22,NNW,327,5.0,13.0,67,0.00,,,0.00,Wunderground v.1.15,2013-01-26 02:50:00,
2013-01-25 20:55:00,34.5,25.0,30.22,WNW,293,5.0,13.0,68,0.00,,,0.00,Wunderground v.1.15,2013-01-26 02:55:00,
2013-01-25 21:04:00,34.3,25.2,30.22,South,178,4.0,13.0,69,0.00,,,0.00,Wunderground v.1.15,2013-01-26 03:04:00,
2013-01-25 21:14:00,34.4,25.3,30.22,South,176,3.0,13.0,69,0.00,,,0.00,Wunderground v.1.15,2013-01-26 03:14:00,
2013-01-25 21:20:00,34.4,25.3,30.22,SW,215,3.0,13.0,69,0.00,,,0.00,Wunderground v.1.15,2013-01-26 03:20:00,
2013-01-25 21:25:00,34.4,25.3,30.22,SSW,195,2.0,13.0,69,0.00,,,0.00,Wunderground v.1.15,2013-01-26 03:25:00,
2013-01-25 21:30:00,33.8,24.4,30.23,SSW,207,2.0,13.0,68,0.00,,,0.00,Wunderground v.1.15,2013-01-26 03:30:00,
2013-01-25 21:35:00,33.4,25.0,30.22,West,266,3.0,13.0,71,0.00,,,0.00,Wunderground v.1.15,2013-01-26 03:35:00,
2013-01-25 21:40:00,33.5,25.1,30.22,West,274,3.0,13.0,71,0.00,,,0.00,Wunderground v.1.15,2013-01-26 03:40:00,
2013-01-25 21:50:00,33.4,25.0,30.23,NW,309,4.0,4.0,71,0.00,,,0.00,Wunderground v.1.15,2013-01-26 03:50:00,
2013-01-25 21:59:00,32.8,24.8,30.23,WNW,301,4.0,13.0,72,0.00,,,0.00,Wunderground v.1.15,2013-01-26 03:59:00,
2013-01-25 22:05:00,32.6,24.9,30.23,NW,308,4.0,13.0,73,0.00,,,0.00,Wunderground v.1.15,2013-01-26 04:05:00,
2013-01-25 22:10:00,32.6,24.9,30.23,NW,317,4.0,13.0,73,0.00,,,0.00,Wunderground v.1.15,2013-01-26 04:10:00,
2013-01-25 22:15:00,32.3,24.6,30.23,South,184,4.0,13.0,73,0.00,,,0.00,Wunderground v.1.15,2013-01-26 04:15:00,
2013-01-25 22:25:00,31.8,24.8,30.23,NW,304,4.0,13.0,75,0.00,,,0.00,Wunderground v.1.15,2013-01-26 04:25:00,
2013-01-25 22:30:00,31.7,24.7,30.23,NW,304,4.0,13.0,75,0.00,,,0.00,Wunderground v.1.15,2013-01-26 04:30:00,
2013-01-25 22:35:00,31.5,24.5,30.23,WNW,300,4.0,13.0,75,0.00,,,0.00,Wunderground v.1.15,2013-01-26 04:35:00,
2013-01-25 22:40:00,31.5,24.8,30.23,SW,227,4.0,13.0,76,0.00,,,0.00,Wunderground v.1.15,2013-01-26 04:40:00,
2013-01-25 22:45:00,31.4,24.7,30.23,WSW,248,4.0,13.0,76,0.00,,,0.00,Wunderground v.1.15,2013-01-26 04:45:00,
2013-01-25 22:55:00,31.2,24.5,30.23,NW,317,4.0,13.0,76,0.00,,,0.00,Wunderground v.1.15,2013-01-26 04:55:00,
2013-01-25 23:04:00,30.7,24.3,30.23,WSW,256,5.0,13.0,77,0.00,,,0.00,Wunderground v.1.15,2013-01-26 05:04:00,
2013-01-25 23:10:00,30.5,24.5,30.23,WNW,292,4.0,13.0,78,0.00,,,0.00,Wunderground v.1.15,2013-01-26 05:10:00,
2013-01-25 23:15:00,30.4,24.4,30.24,SSW,212,4.0,13.0,78,0.00,,,0.00,Wunderground v.1.15,2013-01-26 05:15:00,
2013-01-25 23:20:00,30.4,24.4,30.24,West,273,4.0,13.0,78,0.00,,,0.00,Wunderground v.1.15,2013-01-26 05:20:00,
2013-01-25 23:30:00,30.0,24.0,30.25,SW,218,4.0,13.0,78,0.00,,,0.00,Wunderground v.1.15,2013-01-26 05:30:00,
2013-01-25 23:35:00,29.8,24.1,30.25,West,271,3.0,13.0,79,0.00,,,0.00,Wunderground v.1.15,2013-01-26 05:35:00,
2013-01-25 23:40:00,29.5,23.8,30.25,SW,219,3.0,13.0,79,0.00,,,0.00,Wunderground v.1.15,2013-01-26 05:40:00,
2013-01-25 23:45:00,29.3,23.6,30.25,WSW,239,3.0,13.0,79,0.00,,,0.00,Wunderground v.1.15,2013-01-26 05:45:00,
2013-01-25 23:54:00,28.8,23.4,30.25,West,262,3.0,13.0,80,0.00,,,0.00,Wunderground v.1.15,2013-01-26 05:54:00,
2013-01-25 23:59:00,28.6,23.5,30.25,SW,233,3.0,13.0,81,0.00,,,0.00,Wunderground v.1.15,2013-01-26 05:59:00,